sensor_id;sensor_type;location;lat;lon;timestamp;P1;durP1;ratioP1;P2;durP2;ratioP2
42726;SDS011;28372;56.832;60.658;2023-09-08T00:01:02;18.02;;;8.00;;
42726;SDS011;28372;56.832;60.658;2023-09-08T00:03:30;19.13;;;8.70;;
42726;SDS011;28372;56.832;60.658;2023-09-08T00:05:58;16.80;;;9.20;;
42726;SDS011;28372;56.832;60.658;2023-09-08T00:08:25;19.00;;;8.63;;
42726;SDS011;28372;56.832;60.658;2023-09-08T00:10:53;17.08;;;8.98;;
42726;SDS011;28372;56.832;60.658;2023-09-08T00:13:21;19.15;;;8.70;;
42726;SDS011;28372;56.832;60.658;2023-09-08T00:15:48;17.42;;;8.85;;
42726;SDS011;28372;56.832;60.658;2023-09-08T00:18:16;18.83;;;8.55;;
42726;SDS011;28372;56.832;60.658;2023-09-08T00:20:44;18.63;;;9.55;;
42726;SDS011;28372;56.832;60.658;2023-09-08T00:23:12;17.20;;;8.80;;
42726;SDS011;28372;56.832;60.658;2023-09-08T00:25:40;17.60;;;9.20;;
42726;SDS011;28372;56.832;60.658;2023-09-08T00:28:08;20.73;;;8.88;;
42726;SDS011;28372;56.832;60.658;2023-09-08T00:30:35;16.63;;;8.30;;
42726;SDS011;28372;56.832;60.658;2023-09-08T00:33:03;19.95;;;8.27;;
42726;SDS011;28372;56.832;60.658;2023-09-08T00:35:31;17.55;;;8.48;;
42726;SDS011;28372;56.832;60.658;2023-09-08T00:37:59;17.48;;;8.10;;
42726;SDS011;28372;56.832;60.658;2023-09-08T00:40:45;20.17;;;9.18;;
42726;SDS011;28372;56.832;60.658;2023-09-08T00:43:13;19.77;;;8.35;;
42726;SDS011;28372;56.832;60.658;2023-09-08T00:45:41;17.98;;;8.73;;
42726;SDS011;28372;56.832;60.658;2023-09-08T00:48:10;19.48;;;8.88;;
42726;SDS011;28372;56.832;60.658;2023-09-08T00:50:39;19.02;;;9.20;;
42726;SDS011;28372;56.832;60.658;2023-09-08T00:53:07;20.13;;;8.75;;
42726;SDS011;28372;56.832;60.658;2023-09-08T00:55:36;19.17;;;8.73;;
42726;SDS011;28372;56.832;60.658;2023-09-08T00:58:07;17.83;;;9.02;;
42726;SDS011;28372;56.832;60.658;2023-09-08T01:00:35;18.30;;;8.65;;
42726;SDS011;28372;56.832;60.658;2023-09-08T01:03:03;17.38;;;9.10;;
42726;SDS011;28372;56.832;60.658;2023-09-08T01:05:31;20.08;;;9.45;;
42726;SDS011;28372;56.832;60.658;2023-09-08T01:07:59;15.93;;;8.38;;
42726;SDS011;28372;56.832;60.658;2023-09-08T01:10:27;15.05;;;8.40;;
42726;SDS011;28372;56.832;60.658;2023-09-08T01:12:55;19.48;;;8.65;;
42726;SDS011;28372;56.832;60.658;2023-09-08T01:15:23;17.50;;;9.73;;
42726;SDS011;28372;56.832;60.658;2023-09-08T01:17:51;19.55;;;10.68;;
42726;SDS011;28372;56.832;60.658;2023-09-08T01:20:20;18.52;;;9.32;;
42726;SDS011;28372;56.832;60.658;2023-09-08T01:25:44;18.60;;;9.75;;
42726;SDS011;28372;56.832;60.658;2023-09-08T01:28:18;17.75;;;8.48;;
42726;SDS011;28372;56.832;60.658;2023-09-08T01:30:48;19.40;;;9.73;;
42726;SDS011;28372;56.832;60.658;2023-09-08T01:33:16;18.20;;;9.23;;
42726;SDS011;28372;56.832;60.658;2023-09-08T01:35:45;18.52;;;9.15;;
42726;SDS011;28372;56.832;60.658;2023-09-08T01:38:13;17.02;;;8.65;;
42726;SDS011;28372;56.832;60.658;2023-09-08T01:40:41;18.58;;;9.00;;
42726;SDS011;28372;56.832;60.658;2023-09-08T01:43:09;20.13;;;9.50;;
42726;SDS011;28372;56.832;60.658;2023-09-08T01:45:37;16.92;;;9.63;;
42726;SDS011;28372;56.832;60.658;2023-09-08T01:48:05;15.57;;;8.70;;
42726;SDS011;28372;56.832;60.658;2023-09-08T01:50:33;20.05;;;8.75;;
42726;SDS011;28372;56.832;60.658;2023-09-08T01:53:00;17.05;;;8.00;;
42726;SDS011;28372;56.832;60.658;2023-09-08T01:55:28;16.52;;;8.52;;
42726;SDS011;28372;56.832;60.658;2023-09-08T01:57:57;14.50;;;8.18;;
42726;SDS011;28372;56.832;60.658;2023-09-08T02:00:25;15.65;;;7.93;;
42726;SDS011;28372;56.832;60.658;2023-09-08T02:02:53;14.70;;;7.70;;
42726;SDS011;28372;56.832;60.658;2023-09-08T02:05:20;17.45;;;8.40;;
42726;SDS011;28372;56.832;60.658;2023-09-08T02:07:48;14.40;;;8.20;;
42726;SDS011;28372;56.832;60.658;2023-09-08T02:10:16;15.85;;;7.47;;
42726;SDS011;28372;56.832;60.658;2023-09-08T02:12:46;14.05;;;7.53;;
42726;SDS011;28372;56.832;60.658;2023-09-08T02:15:15;15.35;;;8.18;;
42726;SDS011;28372;56.832;60.658;2023-09-08T02:17:45;14.10;;;7.68;;
42726;SDS011;28372;56.832;60.658;2023-09-08T02:20:32;12.55;;;7.47;;
42726;SDS011;28372;56.832;60.658;2023-09-08T02:23:04;12.95;;;8.45;;
42726;SDS011;28372;56.832;60.658;2023-09-08T02:25:33;11.27;;;7.32;;
42726;SDS011;28372;56.832;60.658;2023-09-08T02:28:01;15.05;;;8.50;;
42726;SDS011;28372;56.832;60.658;2023-09-08T02:30:29;17.63;;;8.30;;
42726;SDS011;28372;56.832;60.658;2023-09-08T02:32:58;14.98;;;7.90;;
42726;SDS011;28372;56.832;60.658;2023-09-08T02:35:26;17.33;;;8.63;;
42726;SDS011;28372;56.832;60.658;2023-09-08T02:37:57;17.45;;;8.23;;
42726;SDS011;28372;56.832;60.658;2023-09-08T02:40:26;13.05;;;8.27;;
42726;SDS011;28372;56.832;60.658;2023-09-08T02:42:54;13.38;;;8.43;;
42726;SDS011;28372;56.832;60.658;2023-09-08T02:45:22;13.70;;;8.18;;
42726;SDS011;28372;56.832;60.658;2023-09-08T02:47:50;13.95;;;7.82;;
42726;SDS011;28372;56.832;60.658;2023-09-08T02:50:17;14.95;;;8.18;;
42726;SDS011;28372;56.832;60.658;2023-09-08T02:52:45;13.05;;;7.13;;
42726;SDS011;28372;56.832;60.658;2023-09-08T02:55:13;15.18;;;7.88;;
42726;SDS011;28372;56.832;60.658;2023-09-08T02:57:42;15.38;;;7.63;;
42726;SDS011;28372;56.832;60.658;2023-09-08T03:00:09;14.48;;;7.60;;
42726;SDS011;28372;56.832;60.658;2023-09-08T03:02:37;12.63;;;7.88;;
42726;SDS011;28372;56.832;60.658;2023-09-08T03:05:06;14.85;;;7.18;;
42726;SDS011;28372;56.832;60.658;2023-09-08T03:07:35;14.15;;;8.07;;
42726;SDS011;28372;56.832;60.658;2023-09-08T03:10:05;15.57;;;8.00;;
42726;SDS011;28372;56.832;60.658;2023-09-08T03:12:33;13.65;;;7.68;;
42726;SDS011;28372;56.832;60.658;2023-09-08T03:15:03;13.52;;;8.23;;
42726;SDS011;28372;56.832;60.658;2023-09-08T03:17:31;14.07;;;7.65;;
42726;SDS011;28372;56.832;60.658;2023-09-08T03:19:59;12.65;;;6.75;;
42726;SDS011;28372;56.832;60.658;2023-09-08T03:22:27;15.15;;;7.53;;
42726;SDS011;28372;56.832;60.658;2023-09-08T03:24:55;16.45;;;7.35;;
42726;SDS011;28372;56.832;60.658;2023-09-08T03:27:22;15.18;;;7.22;;
42726;SDS011;28372;56.832;60.658;2023-09-08T03:29:53;14.13;;;7.35;;
42726;SDS011;28372;56.832;60.658;2023-09-08T03:32:21;13.70;;;7.10;;
42726;SDS011;28372;56.832;60.658;2023-09-08T03:34:49;13.77;;;7.00;;
42726;SDS011;28372;56.832;60.658;2023-09-08T03:37:17;13.93;;;7.00;;
42726;SDS011;28372;56.832;60.658;2023-09-08T03:39:45;15.70;;;7.95;;
42726;SDS011;28372;56.832;60.658;2023-09-08T03:42:13;14.05;;;7.47;;
42726;SDS011;28372;56.832;60.658;2023-09-08T03:44:40;13.85;;;7.53;;
42726;SDS011;28372;56.832;60.658;2023-09-08T03:47:08;15.05;;;7.38;;
42726;SDS011;28372;56.832;60.658;2023-09-08T03:49:36;15.75;;;7.90;;
42726;SDS011;28372;56.832;60.658;2023-09-08T03:52:03;13.80;;;7.50;;
42726;SDS011;28372;56.832;60.658;2023-09-08T03:54:32;13.25;;;7.45;;
42726;SDS011;28372;56.832;60.658;2023-09-08T03:57:00;16.50;;;7.53;;
42726;SDS011;28372;56.832;60.658;2023-09-08T03:59:27;16.85;;;6.88;;
42726;SDS011;28372;56.832;60.658;2023-09-08T04:01:56;16.85;;;6.78;;
42726;SDS011;28372;56.832;60.658;2023-09-08T04:04:24;18.70;;;6.63;;
42726;SDS011;28372;56.832;60.658;2023-09-08T04:06:52;16.42;;;6.68;;
42726;SDS011;28372;56.832;60.658;2023-09-08T04:09:19;14.95;;;6.90;;
42726;SDS011;28372;56.832;60.658;2023-09-08T04:11:47;11.57;;;6.25;;
42726;SDS011;28372;56.832;60.658;2023-09-08T04:14:15;11.98;;;6.40;;
42726;SDS011;28372;56.832;60.658;2023-09-08T04:16:43;12.13;;;5.97;;
42726;SDS011;28372;56.832;60.658;2023-09-08T04:19:11;13.32;;;6.57;;
42726;SDS011;28372;56.832;60.658;2023-09-08T04:21:40;12.48;;;6.45;;
42726;SDS011;28372;56.832;60.658;2023-09-08T04:24:08;9.60;;;6.10;;
42726;SDS011;28372;56.832;60.658;2023-09-08T04:26:37;11.30;;;5.72;;
42726;SDS011;28372;56.832;60.658;2023-09-08T04:29:06;10.63;;;5.88;;
42726;SDS011;28372;56.832;60.658;2023-09-08T04:31:34;13.35;;;6.25;;
42726;SDS011;28372;56.832;60.658;2023-09-08T04:34:02;11.65;;;5.65;;
42726;SDS011;28372;56.832;60.658;2023-09-08T04:36:30;11.55;;;6.05;;
42726;SDS011;28372;56.832;60.658;2023-09-08T04:38:57;13.73;;;5.65;;
42726;SDS011;28372;56.832;60.658;2023-09-08T04:41:25;10.07;;;5.97;;
42726;SDS011;28372;56.832;60.658;2023-09-08T04:43:53;9.60;;;5.75;;
42726;SDS011;28372;56.832;60.658;2023-09-08T04:46:23;8.73;;;5.13;;
42726;SDS011;28372;56.832;60.658;2023-09-08T04:48:52;9.90;;;5.15;;
42726;SDS011;28372;56.832;60.658;2023-09-08T04:51:22;9.88;;;5.32;;
42726;SDS011;28372;56.832;60.658;2023-09-08T04:53:49;10.55;;;5.25;;
42726;SDS011;28372;56.832;60.658;2023-09-08T04:56:18;12.25;;;5.65;;
42726;SDS011;28372;56.832;60.658;2023-09-08T04:58:45;13.02;;;5.40;;
42726;SDS011;28372;56.832;60.658;2023-09-08T05:01:14;10.43;;;5.13;;
42726;SDS011;28372;56.832;60.658;2023-09-08T05:03:42;11.30;;;5.97;;
42726;SDS011;28372;56.832;60.658;2023-09-08T05:06:10;11.05;;;5.57;;
42726;SDS011;28372;56.832;60.658;2023-09-08T05:08:37;12.80;;;5.53;;
42726;SDS011;28372;56.832;60.658;2023-09-08T05:11:05;11.48;;;5.55;;
42726;SDS011;28372;56.832;60.658;2023-09-08T05:13:33;7.60;;;4.28;;
42726;SDS011;28372;56.832;60.658;2023-09-08T05:16:03;8.38;;;4.50;;
42726;SDS011;28372;56.832;60.658;2023-09-08T05:18:47;12.02;;;4.90;;
42726;SDS011;28372;56.832;60.658;2023-09-08T05:21:15;9.10;;;4.18;;
42726;SDS011;28372;56.832;60.658;2023-09-08T05:23:43;7.85;;;4.25;;
42726;SDS011;28372;56.832;60.658;2023-09-08T05:26:12;7.05;;;4.10;;
42726;SDS011;28372;56.832;60.658;2023-09-08T05:28:39;8.43;;;4.32;;
42726;SDS011;28372;56.832;60.658;2023-09-08T05:31:10;9.82;;;4.25;;
42726;SDS011;28372;56.832;60.658;2023-09-08T05:33:38;8.27;;;4.55;;
42726;SDS011;28372;56.832;60.658;2023-09-08T05:36:06;5.78;;;4.07;;
42726;SDS011;28372;56.832;60.658;2023-09-08T05:38:33;6.35;;;3.85;;
42726;SDS011;28372;56.832;60.658;2023-09-08T05:41:01;9.50;;;3.88;;
42726;SDS011;28372;56.832;60.658;2023-09-08T05:43:30;6.68;;;3.65;;
42726;SDS011;28372;56.832;60.658;2023-09-08T05:45:59;8.38;;;3.80;;
42726;SDS011;28372;56.832;60.658;2023-09-08T05:48:27;6.57;;;3.60;;
42726;SDS011;28372;56.832;60.658;2023-09-08T05:50:55;5.95;;;4.00;;
42726;SDS011;28372;56.832;60.658;2023-09-08T05:53:23;6.88;;;3.85;;
42726;SDS011;28372;56.832;60.658;2023-09-08T05:55:51;6.97;;;3.83;;
42726;SDS011;28372;56.832;60.658;2023-09-08T05:58:20;7.57;;;3.53;;
42726;SDS011;28372;56.832;60.658;2023-09-08T06:00:47;7.25;;;3.80;;
42726;SDS011;28372;56.832;60.658;2023-09-08T06:03:15;6.30;;;3.40;;
42726;SDS011;28372;56.832;60.658;2023-09-08T06:05:43;7.13;;;3.80;;
42726;SDS011;28372;56.832;60.658;2023-09-08T06:08:11;7.68;;;3.33;;
42726;SDS011;28372;56.832;60.658;2023-09-08T06:10:41;5.82;;;3.40;;
42726;SDS011;28372;56.832;60.658;2023-09-08T06:13:09;5.57;;;3.28;;
42726;SDS011;28372;56.832;60.658;2023-09-08T06:15:39;5.30;;;3.53;;
42726;SDS011;28372;56.832;60.658;2023-09-08T06:18:07;6.70;;;3.40;;
42726;SDS011;28372;56.832;60.658;2023-09-08T06:20:35;8.55;;;3.58;;
42726;SDS011;28372;56.832;60.658;2023-09-08T06:23:03;6.82;;;3.35;;
42726;SDS011;28372;56.832;60.658;2023-09-08T06:25:31;10.38;;;3.30;;
42726;SDS011;28372;56.832;60.658;2023-09-08T06:27:58;8.35;;;3.50;;
42726;SDS011;28372;56.832;60.658;2023-09-08T06:30:27;6.07;;;3.10;;
42726;SDS011;28372;56.832;60.658;2023-09-08T06:32:54;5.68;;;3.20;;
42726;SDS011;28372;56.832;60.658;2023-09-08T06:35:23;7.43;;;3.22;;
42726;SDS011;28372;56.832;60.658;2023-09-08T06:37:50;5.75;;;3.15;;
42726;SDS011;28372;56.832;60.658;2023-09-08T06:40:19;8.80;;;3.05;;
42726;SDS011;28372;56.832;60.658;2023-09-08T06:42:47;5.13;;;2.85;;
42726;SDS011;28372;56.832;60.658;2023-09-08T06:45:27;5.30;;;2.83;;
42726;SDS011;28372;56.832;60.658;2023-09-08T06:47:55;8.95;;;3.00;;
42726;SDS011;28372;56.832;60.658;2023-09-08T06:50:24;9.00;;;3.10;;
42726;SDS011;28372;56.832;60.658;2023-09-08T06:52:52;6.13;;;3.10;;
42726;SDS011;28372;56.832;60.658;2023-09-08T06:55:20;5.20;;;2.92;;
42726;SDS011;28372;56.832;60.658;2023-09-08T06:57:48;8.10;;;2.92;;
42726;SDS011;28372;56.832;60.658;2023-09-08T07:00:16;11.02;;;2.97;;
42726;SDS011;28372;56.832;60.658;2023-09-08T07:02:47;11.40;;;3.05;;
42726;SDS011;28372;56.832;60.658;2023-09-08T07:05:17;6.47;;;3.20;;
42726;SDS011;28372;56.832;60.658;2023-09-08T07:07:45;7.30;;;2.88;;
42726;SDS011;28372;56.832;60.658;2023-09-08T07:10:15;6.47;;;3.20;;
42726;SDS011;28372;56.832;60.658;2023-09-08T07:12:44;6.70;;;3.00;;
42726;SDS011;28372;56.832;60.658;2023-09-08T07:15:13;5.15;;;2.80;;
42726;SDS011;28372;56.832;60.658;2023-09-08T07:17:41;6.03;;;2.97;;
42726;SDS011;28372;56.832;60.658;2023-09-08T07:20:09;6.03;;;3.10;;
42726;SDS011;28372;56.832;60.658;2023-09-08T07:22:39;4.90;;;2.83;;
42726;SDS011;28372;56.832;60.658;2023-09-08T07:25:08;15.68;;;3.75;;
42726;SDS011;28372;56.832;60.658;2023-09-08T07:27:37;7.38;;;3.42;;
42726;SDS011;28372;56.832;60.658;2023-09-08T07:30:05;6.80;;;3.10;;
42726;SDS011;28372;56.832;60.658;2023-09-08T07:32:34;5.95;;;3.30;;
42726;SDS011;28372;56.832;60.658;2023-09-08T07:35:02;7.03;;;3.05;;
42726;SDS011;28372;56.832;60.658;2023-09-08T07:37:31;6.90;;;3.05;;
42726;SDS011;28372;56.832;60.658;2023-09-08T07:39:59;4.75;;;3.10;;
42726;SDS011;28372;56.832;60.658;2023-09-08T07:42:29;7.47;;;3.20;;
42726;SDS011;28372;56.832;60.658;2023-09-08T07:44:57;6.35;;;2.88;;
42726;SDS011;28372;56.832;60.658;2023-09-08T07:47:25;5.45;;;3.38;;
42726;SDS011;28372;56.832;60.658;2023-09-08T07:50:15;4.80;;;3.08;;
42726;SDS011;28372;56.832;60.658;2023-09-08T07:52:48;5.18;;;3.25;;
42726;SDS011;28372;56.832;60.658;2023-09-08T07:55:17;6.40;;;3.20;;
42726;SDS011;28372;56.832;60.658;2023-09-08T07:57:45;6.55;;;3.58;;
42726;SDS011;28372;56.832;60.658;2023-09-08T08:00:13;6.30;;;2.85;;
42726;SDS011;28372;56.832;60.658;2023-09-08T08:02:42;4.93;;;3.13;;
42726;SDS011;28372;56.832;60.658;2023-09-08T08:05:13;6.88;;;3.28;;
42726;SDS011;28372;56.832;60.658;2023-09-08T08:07:41;8.32;;;3.47;;
42726;SDS011;28372;56.832;60.658;2023-09-08T08:10:10;8.25;;;3.30;;
42726;SDS011;28372;56.832;60.658;2023-09-08T08:12:41;5.95;;;3.40;;
42726;SDS011;28372;56.832;60.658;2023-09-08T08:15:09;5.40;;;3.10;;
42726;SDS011;28372;56.832;60.658;2023-09-08T08:17:38;7.07;;;3.60;;
42726;SDS011;28372;56.832;60.658;2023-09-08T08:20:08;3.58;;;3.15;;
42726;SDS011;28372;56.832;60.658;2023-09-08T08:22:38;6.53;;;3.20;;
42726;SDS011;28372;56.832;60.658;2023-09-08T08:25:06;7.43;;;3.42;;
42726;SDS011;28372;56.832;60.658;2023-09-08T08:27:36;7.10;;;3.30;;
42726;SDS011;28372;56.832;60.658;2023-09-08T08:30:04;6.80;;;3.53;;
42726;SDS011;28372;56.832;60.658;2023-09-08T08:32:43;6.03;;;3.47;;
42726;SDS011;28372;56.832;60.658;2023-09-08T08:35:11;5.60;;;3.13;;
42726;SDS011;28372;56.832;60.658;2023-09-08T08:37:39;5.60;;;3.13;;
42726;SDS011;28372;56.832;60.658;2023-09-08T08:40:09;7.00;;;3.13;;
42726;SDS011;28372;56.832;60.658;2023-09-08T08:42:41;7.30;;;3.03;;
42726;SDS011;28372;56.832;60.658;2023-09-08T08:45:10;5.93;;;2.85;;
42726;SDS011;28372;56.832;60.658;2023-09-08T08:47:39;6.45;;;3.10;;
42726;SDS011;28372;56.832;60.658;2023-09-08T08:50:07;6.35;;;3.17;;
42726;SDS011;28372;56.832;60.658;2023-09-08T08:52:38;6.90;;;2.95;;
42726;SDS011;28372;56.832;60.658;2023-09-08T08:55:07;6.70;;;3.40;;
42726;SDS011;28372;56.832;60.658;2023-09-08T08:57:38;6.03;;;2.60;;
42726;SDS011;28372;56.832;60.658;2023-09-08T09:00:07;8.32;;;3.10;;
42726;SDS011;28372;56.832;60.658;2023-09-08T09:02:40;4.72;;;2.83;;
42726;SDS011;28372;56.832;60.658;2023-09-08T09:05:13;7.43;;;3.05;;
42726;SDS011;28372;56.832;60.658;2023-09-08T09:07:42;7.53;;;3.05;;
42726;SDS011;28372;56.832;60.658;2023-09-08T09:10:10;6.18;;;2.97;;
42726;SDS011;28372;56.832;60.658;2023-09-08T09:12:38;8.43;;;3.50;;
42726;SDS011;28372;56.832;60.658;2023-09-08T09:15:06;9.85;;;3.22;;
42726;SDS011;28372;56.832;60.658;2023-09-08T09:17:38;7.90;;;3.00;;
42726;SDS011;28372;56.832;60.658;2023-09-08T09:20:17;7.00;;;3.03;;
42726;SDS011;28372;56.832;60.658;2023-09-08T09:22:47;6.75;;;2.97;;
42726;SDS011;28372;56.832;60.658;2023-09-08T09:25:23;8.38;;;3.40;;
42726;SDS011;28372;56.832;60.658;2023-09-08T09:27:53;7.25;;;2.72;;
42726;SDS011;28372;56.832;60.658;2023-09-08T09:30:22;4.75;;;2.92;;
42726;SDS011;28372;56.832;60.658;2023-09-08T09:33:00;6.45;;;3.22;;
42726;SDS011;28372;56.832;60.658;2023-09-08T09:35:50;8.55;;;3.33;;
42726;SDS011;28372;56.832;60.658;2023-09-08T09:38:19;5.10;;;3.10;;
42726;SDS011;28372;56.832;60.658;2023-09-08T09:40:48;5.13;;;2.70;;
42726;SDS011;28372;56.832;60.658;2023-09-08T09:43:16;6.35;;;3.22;;
42726;SDS011;28372;56.832;60.658;2023-09-08T09:45:48;7.15;;;3.40;;
42726;SDS011;28372;56.832;60.658;2023-09-08T09:48:16;8.35;;;3.33;;
42726;SDS011;28372;56.832;60.658;2023-09-08T09:50:47;6.22;;;3.47;;
42726;SDS011;28372;56.832;60.658;2023-09-08T09:53:16;7.05;;;3.50;;
42726;SDS011;28372;56.832;60.658;2023-09-08T09:55:45;6.47;;;3.58;;
42726;SDS011;28372;56.832;60.658;2023-09-08T09:58:13;8.05;;;3.33;;
42726;SDS011;28372;56.832;60.658;2023-09-08T10:00:44;8.38;;;3.45;;
42726;SDS011;28372;56.832;60.658;2023-09-08T10:03:16;5.53;;;3.70;;
42726;SDS011;28372;56.832;60.658;2023-09-08T10:05:45;6.65;;;3.55;;
42726;SDS011;28372;56.832;60.658;2023-09-08T10:08:15;5.55;;;3.63;;
42726;SDS011;28372;56.832;60.658;2023-09-08T10:10:43;6.28;;;3.60;;
42726;SDS011;28372;56.832;60.658;2023-09-08T10:13:15;7.22;;;4.13;;
42726;SDS011;28372;56.832;60.658;2023-09-08T10:15:50;6.55;;;3.60;;
42726;SDS011;28372;56.832;60.658;2023-09-08T10:18:19;7.43;;;4.10;;
42726;SDS011;28372;56.832;60.658;2023-09-08T10:20:50;7.47;;;3.30;;
42726;SDS011;28372;56.832;60.658;2023-09-08T10:25:59;5.97;;;3.33;;
42726;SDS011;28372;56.832;60.658;2023-09-08T10:28:32;7.43;;;3.70;;
42726;SDS011;28372;56.832;60.658;2023-09-08T10:31:01;6.40;;;3.30;;
42726;SDS011;28372;56.832;60.658;2023-09-08T10:33:30;5.13;;;3.25;;
42726;SDS011;28372;56.832;60.658;2023-09-08T10:35:59;6.63;;;3.42;;
42726;SDS011;28372;56.832;60.658;2023-09-08T10:38:34;6.20;;;3.38;;
42726;SDS011;28372;56.832;60.658;2023-09-08T10:43:43;8.07;;;3.63;;
42726;SDS011;28372;56.832;60.658;2023-09-08T10:46:20;6.57;;;2.95;;
42726;SDS011;28372;56.832;60.658;2023-09-08T10:48:49;7.10;;;2.97;;
42726;SDS011;28372;56.832;60.658;2023-09-08T10:51:20;7.97;;;3.20;;
42726;SDS011;28372;56.832;60.658;2023-09-08T10:53:50;6.97;;;3.20;;
42726;SDS011;28372;56.832;60.658;2023-09-08T10:56:17;6.05;;;3.10;;
42726;SDS011;28372;56.832;60.658;2023-09-08T10:58:49;7.10;;;3.20;;
42726;SDS011;28372;56.832;60.658;2023-09-08T11:01:20;6.18;;;3.10;;
42726;SDS011;28372;56.832;60.658;2023-09-08T11:03:54;6.00;;;3.20;;
42726;SDS011;28372;56.832;60.658;2023-09-08T11:06:23;5.25;;;2.80;;
42726;SDS011;28372;56.832;60.658;2023-09-08T11:08:50;5.47;;;3.10;;
42726;SDS011;28372;56.832;60.658;2023-09-08T11:11:23;7.53;;;3.13;;
42726;SDS011;28372;56.832;60.658;2023-09-08T11:13:52;4.43;;;2.83;;
42726;SDS011;28372;56.832;60.658;2023-09-08T11:16:20;5.38;;;2.72;;
42726;SDS011;28372;56.832;60.658;2023-09-08T11:18:52;6.95;;;3.28;;
42726;SDS011;28372;56.832;60.658;2023-09-08T11:21:20;7.53;;;3.10;;
42726;SDS011;28372;56.832;60.658;2023-09-08T11:23:48;7.43;;;3.28;;
42726;SDS011;28372;56.832;60.658;2023-09-08T11:26:16;6.63;;;3.00;;
42726;SDS011;28372;56.832;60.658;2023-09-08T11:28:44;6.70;;;3.38;;
42726;SDS011;28372;56.832;60.658;2023-09-08T11:31:15;5.53;;;3.22;;
42726;SDS011;28372;56.832;60.658;2023-09-08T11:33:43;8.98;;;2.75;;
42726;SDS011;28372;56.832;60.658;2023-09-08T11:36:17;6.30;;;3.25;;
42726;SDS011;28372;56.832;60.658;2023-09-08T11:38:46;6.80;;;3.13;;
42726;SDS011;28372;56.832;60.658;2023-09-08T11:41:14;7.60;;;3.03;;
42726;SDS011;28372;56.832;60.658;2023-09-08T11:43:42;7.60;;;3.10;;
42726;SDS011;28372;56.832;60.658;2023-09-08T11:46:10;7.20;;;3.03;;
42726;SDS011;28372;56.832;60.658;2023-09-08T11:48:38;4.45;;;2.83;;
42726;SDS011;28372;56.832;60.658;2023-09-08T11:51:07;6.43;;;2.97;;
42726;SDS011;28372;56.832;60.658;2023-09-08T11:53:35;4.97;;;2.88;;
42726;SDS011;28372;56.832;60.658;2023-09-08T11:56:04;6.13;;;3.20;;
42726;SDS011;28372;56.832;60.658;2023-09-08T11:58:32;8.18;;;3.08;;
42726;SDS011;28372;56.832;60.658;2023-09-08T12:01:01;6.82;;;3.13;;
42726;SDS011;28372;56.832;60.658;2023-09-08T12:03:30;7.97;;;3.35;;
42726;SDS011;28372;56.832;60.658;2023-09-08T12:05:58;5.15;;;3.20;;
42726;SDS011;28372;56.832;60.658;2023-09-08T12:08:29;6.20;;;3.22;;
42726;SDS011;28372;56.832;60.658;2023-09-08T12:10:58;6.82;;;3.47;;
42726;SDS011;28372;56.832;60.658;2023-09-08T12:13:25;7.88;;;3.33;;
42726;SDS011;28372;56.832;60.658;2023-09-08T12:16:00;8.20;;;3.28;;
42726;SDS011;28372;56.832;60.658;2023-09-08T12:18:38;7.00;;;3.33;;
42726;SDS011;28372;56.832;60.658;2023-09-08T12:21:07;5.25;;;3.08;;
42726;SDS011;28372;56.832;60.658;2023-09-08T12:23:35;7.35;;;2.75;;
42726;SDS011;28372;56.832;60.658;2023-09-08T12:26:15;5.53;;;2.63;;
42726;SDS011;28372;56.832;60.658;2023-09-08T12:28:46;6.88;;;2.67;;
42726;SDS011;28372;56.832;60.658;2023-09-08T12:31:14;5.53;;;2.72;;
42726;SDS011;28372;56.832;60.658;2023-09-08T12:33:43;5.72;;;2.78;;
42726;SDS011;28372;56.832;60.658;2023-09-08T12:36:18;4.18;;;2.53;;
42726;SDS011;28372;56.832;60.658;2023-09-08T12:38:50;10.65;;;2.92;;
42726;SDS011;28372;56.832;60.658;2023-09-08T12:41:19;7.18;;;3.50;;
42726;SDS011;28372;56.832;60.658;2023-09-08T12:43:47;6.47;;;2.97;;
42726;SDS011;28372;56.832;60.658;2023-09-08T12:46:16;6.85;;;2.88;;
42726;SDS011;28372;56.832;60.658;2023-09-08T12:48:46;6.13;;;3.10;;
42726;SDS011;28372;56.832;60.658;2023-09-08T12:51:13;8.70;;;3.55;;
42726;SDS011;28372;56.832;60.658;2023-09-08T12:53:41;6.95;;;2.83;;
42726;SDS011;28372;56.832;60.658;2023-09-08T12:56:09;8.80;;;2.90;;
42726;SDS011;28372;56.832;60.658;2023-09-08T12:58:37;5.13;;;2.85;;
42726;SDS011;28372;56.832;60.658;2023-09-08T13:01:05;5.78;;;2.60;;
42726;SDS011;28372;56.832;60.658;2023-09-08T13:03:34;8.35;;;2.70;;
42726;SDS011;28372;56.832;60.658;2023-09-08T13:06:02;4.85;;;2.40;;
42726;SDS011;28372;56.832;60.658;2023-09-08T13:08:29;6.28;;;2.80;;
42726;SDS011;28372;56.832;60.658;2023-09-08T13:10:57;5.10;;;2.80;;
42726;SDS011;28372;56.832;60.658;2023-09-08T13:13:25;5.25;;;2.97;;
42726;SDS011;28372;56.832;60.658;2023-09-08T13:15:56;5.68;;;2.92;;
42726;SDS011;28372;56.832;60.658;2023-09-08T13:18:24;7.28;;;2.92;;
42726;SDS011;28372;56.832;60.658;2023-09-08T13:20:51;5.88;;;2.92;;
42726;SDS011;28372;56.832;60.658;2023-09-08T13:23:19;5.22;;;2.72;;
42726;SDS011;28372;56.832;60.658;2023-09-08T13:25:47;5.25;;;3.13;;
42726;SDS011;28372;56.832;60.658;2023-09-08T13:28:14;4.65;;;2.90;;
42726;SDS011;28372;56.832;60.658;2023-09-08T13:30:42;6.45;;;3.08;;
42726;SDS011;28372;56.832;60.658;2023-09-08T13:33:10;6.10;;;3.50;;
42726;SDS011;28372;56.832;60.658;2023-09-08T13:35:37;7.60;;;3.22;;
42726;SDS011;28372;56.832;60.658;2023-09-08T13:38:06;5.00;;;3.28;;
42726;SDS011;28372;56.832;60.658;2023-09-08T13:40:34;8.38;;;3.00;;
42726;SDS011;28372;56.832;60.658;2023-09-08T13:43:01;6.68;;;3.05;;
42726;SDS011;28372;56.832;60.658;2023-09-08T13:45:29;7.88;;;3.10;;
42726;SDS011;28372;56.832;60.658;2023-09-08T13:47:58;7.93;;;3.40;;
42726;SDS011;28372;56.832;60.658;2023-09-08T13:50:26;4.65;;;3.05;;
42726;SDS011;28372;56.832;60.658;2023-09-08T13:52:56;9.30;;;3.80;;
42726;SDS011;28372;56.832;60.658;2023-09-08T13:55:25;5.82;;;3.20;;
42726;SDS011;28372;56.832;60.658;2023-09-08T13:57:56;10.30;;;3.53;;
42726;SDS011;28372;56.832;60.658;2023-09-08T14:00:27;8.98;;;3.70;;
42726;SDS011;28372;56.832;60.658;2023-09-08T14:02:58;8.70;;;3.65;;
42726;SDS011;28372;56.832;60.658;2023-09-08T14:05:32;7.63;;;3.53;;
42726;SDS011;28372;56.832;60.658;2023-09-08T14:08:03;8.00;;;3.30;;
42726;SDS011;28372;56.832;60.658;2023-09-08T14:10:43;10.57;;;3.75;;
42726;SDS011;28372;56.832;60.658;2023-09-08T14:13:13;7.22;;;3.60;;
42726;SDS011;28372;56.832;60.658;2023-09-08T14:15:41;8.45;;;4.03;;
42726;SDS011;28372;56.832;60.658;2023-09-08T14:18:09;8.38;;;3.88;;
42726;SDS011;28372;56.832;60.658;2023-09-08T14:20:37;8.07;;;3.90;;
42726;SDS011;28372;56.832;60.658;2023-09-08T14:23:05;7.90;;;3.58;;
42726;SDS011;28372;56.832;60.658;2023-09-08T14:25:35;11.38;;;4.10;;
42726;SDS011;28372;56.832;60.658;2023-09-08T14:28:03;7.25;;;3.78;;
42726;SDS011;28372;56.832;60.658;2023-09-08T14:30:33;9.77;;;4.40;;
42726;SDS011;28372;56.832;60.658;2023-09-08T14:33:02;9.82;;;4.43;;
42726;SDS011;28372;56.832;60.658;2023-09-08T14:35:31;8.45;;;3.55;;
42726;SDS011;28372;56.832;60.658;2023-09-08T14:37:59;6.93;;;3.90;;
42726;SDS011;28372;56.832;60.658;2023-09-08T14:40:26;7.22;;;3.60;;
42726;SDS011;28372;56.832;60.658;2023-09-08T14:42:54;7.10;;;4.00;;
42726;SDS011;28372;56.832;60.658;2023-09-08T14:45:22;7.55;;;4.10;;
42726;SDS011;28372;56.832;60.658;2023-09-08T14:47:49;9.60;;;4.40;;
42726;SDS011;28372;56.832;60.658;2023-09-08T14:50:17;7.90;;;4.30;;